sensor_id;sensor_type;location;lat;lon;timestamp;P1;durP1;ratioP1;P2;durP2;ratioP2
72929;SDS011;61073;54.260;20.816;2023-07-02T00:02:15;7.55;;;4.25;;
72929;SDS011;61073;54.260;20.816;2023-07-02T00:04:43;6.78;;;4.22;;
72929;SDS011;61073;54.260;20.816;2023-07-02T00:07:10;7.25;;;4.25;;
72929;SDS011;61073;54.260;20.816;2023-07-02T00:09:37;6.22;;;3.90;;
72929;SDS011;61073;54.260;20.816;2023-07-02T00:12:04;9.55;;;3.85;;
72929;SDS011;61073;54.260;20.816;2023-07-02T00:14:31;7.78;;;3.67;;
72929;SDS011;61073;54.260;20.816;2023-07-02T00:16:58;4.57;;;3.72;;
72929;SDS011;61073;54.260;20.816;2023-07-02T00:19:25;5.82;;;4.00;;
72929;SDS011;61073;54.260;20.816;2023-07-02T00:21:53;5.40;;;3.88;;
72929;SDS011;61073;54.260;20.816;2023-07-02T00:24:21;8.43;;;4.30;;
72929;SDS011;61073;54.260;20.816;2023-07-02T00:26:48;6.38;;;4.05;;
72929;SDS011;61073;54.260;20.816;2023-07-02T00:29:15;5.13;;;3.80;;
72929;SDS011;61073;54.260;20.816;2023-07-02T00:31:42;6.30;;;3.60;;
72929;SDS011;61073;54.260;20.816;2023-07-02T00:34:09;5.90;;;3.65;;
72929;SDS011;61073;54.260;20.816;2023-07-02T00:36:36;5.28;;;3.67;;
72929;SDS011;61073;54.260;20.816;2023-07-02T00:39:04;7.20;;;4.20;;
72929;SDS011;61073;54.260;20.816;2023-07-02T00:41:30;7.15;;;4.50;;
72929;SDS011;61073;54.260;20.816;2023-07-02T00:43:57;8.55;;;3.92;;
72929;SDS011;61073;54.260;20.816;2023-07-02T00:46:26;4.93;;;4.30;;
72929;SDS011;61073;54.260;20.816;2023-07-02T00:48:53;5.70;;;3.90;;
72929;SDS011;61073;54.260;20.816;2023-07-02T00:51:22;4.97;;;4.13;;
72929;SDS011;61073;54.260;20.816;2023-07-02T00:53:49;4.20;;;3.75;;
72929;SDS011;61073;54.260;20.816;2023-07-02T00:56:17;5.90;;;4.10;;
72929;SDS011;61073;54.260;20.816;2023-07-02T00:58:45;5.38;;;3.90;;
72929;SDS011;61073;54.260;20.816;2023-07-02T01:01:17;10.68;;;4.93;;
72929;SDS011;61073;54.260;20.816;2023-07-02T01:06:28;7.20;;;3.85;;
72929;SDS011;61073;54.260;20.816;2023-07-02T01:09:00;5.47;;;4.30;;
72929;SDS011;61073;54.260;20.816;2023-07-02T01:11:34;4.90;;;4.00;;
72929;SDS011;61073;54.260;20.816;2023-07-02T01:14:02;7.63;;;4.45;;
72929;SDS011;61073;54.260;20.816;2023-07-02T01:16:30;5.47;;;4.03;;
72929;SDS011;61073;54.260;20.816;2023-07-02T01:18:59;7.68;;;4.28;;
72929;SDS011;61073;54.260;20.816;2023-07-02T01:21:30;6.55;;;4.22;;
72929;SDS011;61073;54.260;20.816;2023-07-02T01:24:02;5.90;;;3.95;;
72929;SDS011;61073;54.260;20.816;2023-07-02T01:26:30;6.95;;;3.97;;
72929;SDS011;61073;54.260;20.816;2023-07-02T01:29:00;4.97;;;3.85;;
72929;SDS011;61073;54.260;20.816;2023-07-02T01:31:27;7.57;;;4.65;;
72929;SDS011;61073;54.260;20.816;2023-07-02T01:33:54;8.50;;;4.93;;
72929;SDS011;61073;54.260;20.816;2023-07-02T01:36:21;8.25;;;3.75;;
72929;SDS011;61073;54.260;20.816;2023-07-02T01:38:48;7.10;;;4.45;;
72929;SDS011;61073;54.260;20.816;2023-07-02T01:41:15;6.50;;;4.22;;
72929;SDS011;61073;54.260;20.816;2023-07-02T01:43:42;7.38;;;4.10;;
72929;SDS011;61073;54.260;20.816;2023-07-02T01:46:09;8.57;;;4.45;;
72929;SDS011;61073;54.260;20.816;2023-07-02T01:48:36;6.70;;;4.18;;
72929;SDS011;61073;54.260;20.816;2023-07-02T01:51:03;7.30;;;4.47;;
72929;SDS011;61073;54.260;20.816;2023-07-02T01:53:31;9.02;;;4.97;;
72929;SDS011;61073;54.260;20.816;2023-07-02T01:55:58;5.40;;;4.10;;
72929;SDS011;61073;54.260;20.816;2023-07-02T01:58:25;5.82;;;4.40;;
72929;SDS011;61073;54.260;20.816;2023-07-02T02:00:52;5.10;;;4.10;;
72929;SDS011;61073;54.260;20.816;2023-07-02T02:03:19;8.00;;;4.53;;
72929;SDS011;61073;54.260;20.816;2023-07-02T02:05:46;6.20;;;4.47;;
72929;SDS011;61073;54.260;20.816;2023-07-02T02:08:14;7.72;;;4.25;;
72929;SDS011;61073;54.260;20.816;2023-07-02T02:10:41;6.78;;;4.55;;
72929;SDS011;61073;54.260;20.816;2023-07-02T02:13:08;7.78;;;4.45;;
72929;SDS011;61073;54.260;20.816;2023-07-02T02:18:03;6.50;;;4.70;;
72929;SDS011;61073;54.260;20.816;2023-07-02T02:20:30;8.73;;;4.55;;
72929;SDS011;61073;54.260;20.816;2023-07-02T02:22:57;5.78;;;4.72;;
72929;SDS011;61073;54.260;20.816;2023-07-02T02:25:24;9.50;;;4.90;;
72929;SDS011;61073;54.260;20.816;2023-07-02T02:27:51;5.95;;;4.22;;
72929;SDS011;61073;54.260;20.816;2023-07-02T02:30:18;6.15;;;4.53;;
72929;SDS011;61073;54.260;20.816;2023-07-02T02:32:45;8.50;;;4.53;;
72929;SDS011;61073;54.260;20.816;2023-07-02T02:35:12;5.95;;;4.78;;
72929;SDS011;61073;54.260;20.816;2023-07-02T02:37:40;5.75;;;4.72;;
72929;SDS011;61073;54.260;20.816;2023-07-02T02:40:07;6.72;;;4.63;;
72929;SDS011;61073;54.260;20.816;2023-07-02T02:42:38;6.80;;;4.90;;
72929;SDS011;61073;54.260;20.816;2023-07-02T02:45:05;6.28;;;5.00;;
72929;SDS011;61073;54.260;20.816;2023-07-02T02:47:32;5.53;;;4.25;;
72929;SDS011;61073;54.260;20.816;2023-07-02T02:49:59;6.97;;;4.35;;
72929;SDS011;61073;54.260;20.816;2023-07-02T02:52:26;5.18;;;4.35;;
72929;SDS011;61073;54.260;20.816;2023-07-02T02:54:53;5.82;;;4.25;;
72929;SDS011;61073;54.260;20.816;2023-07-02T02:57:20;5.35;;;4.30;;
72929;SDS011;61073;54.260;20.816;2023-07-02T02:59:47;5.78;;;3.70;;
72929;SDS011;61073;54.260;20.816;2023-07-02T03:04:42;5.57;;;4.07;;
72929;SDS011;61073;54.260;20.816;2023-07-02T03:07:10;6.35;;;4.10;;
72929;SDS011;61073;54.260;20.816;2023-07-02T03:09:37;6.00;;;4.28;;
72929;SDS011;61073;54.260;20.816;2023-07-02T03:12:04;4.45;;;3.95;;
72929;SDS011;61073;54.260;20.816;2023-07-02T03:14:31;4.70;;;3.97;;
72929;SDS011;61073;54.260;20.816;2023-07-02T03:16:58;4.80;;;4.22;;
72929;SDS011;61073;54.260;20.816;2023-07-02T03:19:25;6.38;;;4.25;;
72929;SDS011;61073;54.260;20.816;2023-07-02T03:21:52;5.75;;;4.40;;
72929;SDS011;61073;54.260;20.816;2023-07-02T03:24:19;10.23;;;4.68;;
72929;SDS011;61073;54.260;20.816;2023-07-02T03:26:46;5.55;;;4.85;;
72929;SDS011;61073;54.260;20.816;2023-07-02T03:29:13;7.32;;;5.05;;
72929;SDS011;61073;54.260;20.816;2023-07-02T03:31:40;6.38;;;4.78;;
72929;SDS011;61073;54.260;20.816;2023-07-02T03:34:09;6.75;;;5.18;;
72929;SDS011;61073;54.260;20.816;2023-07-02T03:36:36;8.02;;;5.00;;
72929;SDS011;61073;54.260;20.816;2023-07-02T03:39:04;8.27;;;5.50;;
72929;SDS011;61073;54.260;20.816;2023-07-02T03:41:32;12.15;;;6.05;;
72929;SDS011;61073;54.260;20.816;2023-07-02T03:43:59;14.10;;;5.75;;
72929;SDS011;61073;54.260;20.816;2023-07-02T03:46:26;9.40;;;5.90;;
72929;SDS011;61073;54.260;20.816;2023-07-02T03:48:53;8.00;;;5.82;;
72929;SDS011;61073;54.260;20.816;2023-07-02T03:51:20;7.05;;;5.63;;
72929;SDS011;61073;54.260;20.816;2023-07-02T03:53:47;8.43;;;6.20;;
72929;SDS011;61073;54.260;20.816;2023-07-02T03:56:14;9.48;;;6.28;;
72929;SDS011;61073;54.260;20.816;2023-07-02T03:58:41;13.90;;;5.93;;
72929;SDS011;61073;54.260;20.816;2023-07-02T04:01:08;7.18;;;5.72;;
72929;SDS011;61073;54.260;20.816;2023-07-02T04:03:35;8.07;;;6.32;;
72929;SDS011;61073;54.260;20.816;2023-07-02T04:06:03;8.65;;;6.40;;
72929;SDS011;61073;54.260;20.816;2023-07-02T04:08:33;10.60;;;6.47;;
72929;SDS011;61073;54.260;20.816;2023-07-02T04:13:27;8.30;;;6.07;;
72929;SDS011;61073;54.260;20.816;2023-07-02T04:15:54;9.13;;;6.03;;
72929;SDS011;61073;54.260;20.816;2023-07-02T04:18:21;8.38;;;6.28;;
72929;SDS011;61073;54.260;20.816;2023-07-02T04:20:48;8.55;;;6.28;;
72929;SDS011;61073;54.260;20.816;2023-07-02T04:23:15;9.23;;;5.97;;
72929;SDS011;61073;54.260;20.816;2023-07-02T04:25:42;8.02;;;5.82;;
72929;SDS011;61073;54.260;20.816;2023-07-02T04:28:09;7.07;;;5.65;;
72929;SDS011;61073;54.260;20.816;2023-07-02T04:33:03;8.73;;;6.17;;
72929;SDS011;61073;54.260;20.816;2023-07-02T04:38:00;8.50;;;5.60;;
72929;SDS011;61073;54.260;20.816;2023-07-02T04:40:27;9.00;;;5.93;;
72929;SDS011;61073;54.260;20.816;2023-07-02T04:42:54;7.78;;;6.05;;
72929;SDS011;61073;54.260;20.816;2023-07-02T04:45:24;6.72;;;5.97;;
72929;SDS011;61073;54.260;20.816;2023-07-02T04:47:51;9.60;;;6.25;;
72929;SDS011;61073;54.260;20.816;2023-07-02T04:50:18;8.63;;;6.30;;
72929;SDS011;61073;54.260;20.816;2023-07-02T04:52:45;7.93;;;6.30;;
72929;SDS011;61073;54.260;20.816;2023-07-02T04:55:12;8.80;;;6.78;;
72929;SDS011;61073;54.260;20.816;2023-07-02T04:57:39;10.10;;;5.88;;
72929;SDS011;61073;54.260;20.816;2023-07-02T05:00:06;8.27;;;6.00;;
72929;SDS011;61073;54.260;20.816;2023-07-02T05:02:34;8.98;;;6.32;;
72929;SDS011;61073;54.260;20.816;2023-07-02T05:05:01;7.13;;;5.68;;
72929;SDS011;61073;54.260;20.816;2023-07-02T05:07:28;9.20;;;5.78;;
72929;SDS011;61073;54.260;20.816;2023-07-02T05:09:55;7.05;;;4.82;;
72929;SDS011;61073;54.260;20.816;2023-07-02T05:12:22;8.23;;;5.13;;
72929;SDS011;61073;54.260;20.816;2023-07-02T05:14:49;5.82;;;4.63;;
72929;SDS011;61073;54.260;20.816;2023-07-02T05:17:16;9.13;;;5.47;;
72929;SDS011;61073;54.260;20.816;2023-07-02T05:19:43;7.40;;;5.30;;
72929;SDS011;61073;54.260;20.816;2023-07-02T05:22:10;6.82;;;5.30;;
72929;SDS011;61073;54.260;20.816;2023-07-02T05:24:37;7.57;;;5.60;;
72929;SDS011;61073;54.260;20.816;2023-07-02T05:27:06;7.32;;;5.40;;
72929;SDS011;61073;54.260;20.816;2023-07-02T05:29:33;8.35;;;4.85;;
72929;SDS011;61073;54.260;20.816;2023-07-02T05:32:00;6.93;;;5.20;;
72929;SDS011;61073;54.260;20.816;2023-07-02T05:34:27;7.50;;;4.88;;
72929;SDS011;61073;54.260;20.816;2023-07-02T05:36:54;5.93;;;5.00;;
72929;SDS011;61073;54.260;20.816;2023-07-02T05:39:21;7.57;;;5.00;;
72929;SDS011;61073;54.260;20.816;2023-07-02T05:41:48;7.85;;;5.47;;
72929;SDS011;61073;54.260;20.816;2023-07-02T05:44:15;8.60;;;5.30;;
72929;SDS011;61073;54.260;20.816;2023-07-02T05:46:42;9.30;;;5.35;;
72929;SDS011;61073;54.260;20.816;2023-07-02T05:49:09;12.70;;;5.75;;
72929;SDS011;61073;54.260;20.816;2023-07-02T05:51:36;8.38;;;6.00;;
72929;SDS011;61073;54.260;20.816;2023-07-02T05:54:03;13.25;;;5.90;;
72929;SDS011;61073;54.260;20.816;2023-07-02T05:56:30;9.15;;;5.90;;
72929;SDS011;61073;54.260;20.816;2023-07-02T05:58:57;9.52;;;6.47;;
72929;SDS011;61073;54.260;20.816;2023-07-02T06:01:24;10.13;;;6.43;;
72929;SDS011;61073;54.260;20.816;2023-07-02T06:03:51;9.38;;;6.10;;
72929;SDS011;61073;54.260;20.816;2023-07-02T06:06:18;11.98;;;6.18;;
72929;SDS011;61073;54.260;20.816;2023-07-02T06:08:45;10.30;;;6.50;;
72929;SDS011;61073;54.260;20.816;2023-07-02T06:11:12;7.72;;;6.05;;
72929;SDS011;61073;54.260;20.816;2023-07-02T06:13:39;10.45;;;5.32;;
72929;SDS011;61073;54.260;20.816;2023-07-02T06:16:06;11.75;;;6.35;;
72929;SDS011;61073;54.260;20.816;2023-07-02T06:18:33;11.05;;;5.85;;
72929;SDS011;61073;54.260;20.816;2023-07-02T06:21:00;8.10;;;5.90;;
72929;SDS011;61073;54.260;20.816;2023-07-02T06:23:29;10.68;;;5.82;;
72929;SDS011;61073;54.260;20.816;2023-07-02T06:25:56;7.93;;;6.28;;
72929;SDS011;61073;54.260;20.816;2023-07-02T06:28:25;9.15;;;5.85;;
72929;SDS011;61073;54.260;20.816;2023-07-02T06:30:52;8.10;;;5.60;;
72929;SDS011;61073;54.260;20.816;2023-07-02T06:33:19;9.25;;;5.65;;
72929;SDS011;61073;54.260;20.816;2023-07-02T06:35:48;7.22;;;5.20;;
72929;SDS011;61073;54.260;20.816;2023-07-02T06:38:15;8.73;;;5.47;;
72929;SDS011;61073;54.260;20.816;2023-07-02T06:40:42;8.85;;;5.65;;
72929;SDS011;61073;54.260;20.816;2023-07-02T06:43:09;9.00;;;6.00;;
72929;SDS011;61073;54.260;20.816;2023-07-02T06:45:36;10.85;;;5.72;;
72929;SDS011;61073;54.260;20.816;2023-07-02T06:48:03;7.78;;;5.95;;
72929;SDS011;61073;54.260;20.816;2023-07-02T06:50:30;11.27;;;5.18;;
72929;SDS011;61073;54.260;20.816;2023-07-02T06:52:57;9.18;;;5.85;;
72929;SDS011;61073;54.260;20.816;2023-07-02T06:55:24;8.77;;;5.65;;
72929;SDS011;61073;54.260;20.816;2023-07-02T06:57:51;5.95;;;5.13;;
72929;SDS011;61073;54.260;20.816;2023-07-02T07:02:49;7.57;;;5.18;;
72929;SDS011;61073;54.260;20.816;2023-07-02T07:05:16;7.43;;;5.22;;
72929;SDS011;61073;54.260;20.816;2023-07-02T07:07:43;9.73;;;5.43;;
72929;SDS011;61073;54.260;20.816;2023-07-02T07:10:10;7.22;;;5.45;;
72929;SDS011;61073;54.260;20.816;2023-07-02T07:12:37;8.35;;;5.50;;
72929;SDS011;61073;54.260;20.816;2023-07-02T07:15:04;6.40;;;5.05;;
72929;SDS011;61073;54.260;20.816;2023-07-02T07:17:31;8.65;;;5.05;;
72929;SDS011;61073;54.260;20.816;2023-07-02T07:19:58;10.35;;;4.93;;
72929;SDS011;61073;54.260;20.816;2023-07-02T07:22:25;7.07;;;5.45;;
72929;SDS011;61073;54.260;20.816;2023-07-02T07:24:52;7.15;;;5.75;;
72929;SDS011;61073;54.260;20.816;2023-07-02T07:27:19;12.52;;;5.47;;
72929;SDS011;61073;54.260;20.816;2023-07-02T07:29:46;8.10;;;5.68;;
72929;SDS011;61073;54.260;20.816;2023-07-02T07:32:13;7.43;;;4.90;;
72929;SDS011;61073;54.260;20.816;2023-07-02T07:34:40;5.60;;;5.00;;
72929;SDS011;61073;54.260;20.816;2023-07-02T07:37:07;6.25;;;4.82;;
72929;SDS011;61073;54.260;20.816;2023-07-02T07:42:01;5.80;;;5.03;;
72929;SDS011;61073;54.260;20.816;2023-07-02T07:44:28;4.63;;;4.22;;
72929;SDS011;61073;54.260;20.816;2023-07-02T07:46:55;7.70;;;4.70;;
72929;SDS011;61073;54.260;20.816;2023-07-02T07:49:22;4.85;;;4.35;;
72929;SDS011;61073;54.260;20.816;2023-07-02T07:51:49;8.10;;;3.97;;
72929;SDS011;61073;54.260;20.816;2023-07-02T07:56:43;4.97;;;3.65;;
72929;SDS011;61073;54.260;20.816;2023-07-02T07:59:10;7.07;;;3.60;;
72929;SDS011;61073;54.260;20.816;2023-07-02T08:01:39;6.60;;;2.83;;
72929;SDS011;61073;54.260;20.816;2023-07-02T08:06:33;8.77;;;3.67;;
72929;SDS011;61073;54.260;20.816;2023-07-02T08:09:00;7.50;;;3.80;;
72929;SDS011;61073;54.260;20.816;2023-07-02T08:11:27;4.22;;;3.75;;
72929;SDS011;61073;54.260;20.816;2023-07-02T08:13:54;5.45;;;3.72;;
72929;SDS011;61073;54.260;20.816;2023-07-02T08:16:21;6.37;;;3.90;;
72929;SDS011;61073;54.260;20.816;2023-07-02T08:18:48;5.30;;;3.97;;
72929;SDS011;61073;54.260;20.816;2023-07-02T08:21:15;4.32;;;3.65;;
72929;SDS011;61073;54.260;20.816;2023-07-02T08:23:43;4.72;;;3.50;;
72929;SDS011;61073;54.260;20.816;2023-07-02T08:26:10;4.40;;;3.58;;
72929;SDS011;61073;54.260;20.816;2023-07-02T08:28:37;5.10;;;3.97;;
72929;SDS011;61073;54.260;20.816;2023-07-02T08:35:59;5.53;;;3.28;;
72929;SDS011;61073;54.260;20.816;2023-07-02T08:38:27;4.10;;;3.50;;
72929;SDS011;61073;54.260;20.816;2023-07-02T08:40:54;5.77;;;3.53;;
72929;SDS011;61073;54.260;20.816;2023-07-02T08:53:10;2.88;;;2.67;;
72929;SDS011;61073;54.260;20.816;2023-07-02T08:58:03;3.88;;;2.50;;
72929;SDS011;61073;54.260;20.816;2023-07-02T09:00:30;3.03;;;2.60;;
72929;SDS011;61073;54.260;20.816;2023-07-02T09:07:56;3.03;;;2.35;;
72929;SDS011;61073;54.260;20.816;2023-07-02T09:32:26;1.15;;;1.05;;
72929;SDS011;61073;54.260;20.816;2023-07-02T09:34:54;1.73;;;1.50;;
72929;SDS011;61073;54.260;20.816;2023-07-02T09:37:22;2.00;;;1.40;;
72929;SDS011;61073;54.260;20.816;2023-07-02T09:39:49;1.55;;;1.45;;
72929;SDS011;61073;54.260;20.816;2023-07-02T09:42:18;2.05;;;1.40;;
72929;SDS011;61073;54.260;20.816;2023-07-02T09:44:46;2.78;;;1.40;;
72929;SDS011;61073;54.260;20.816;2023-07-02T09:47:13;3.30;;;1.80;;
72929;SDS011;61073;54.260;20.816;2023-07-02T09:49:47;1.52;;;1.42;;
72929;SDS011;61073;54.260;20.816;2023-07-02T09:52:15;2.72;;;1.30;;
72929;SDS011;61073;54.260;20.816;2023-07-02T10:02:05;1.50;;;1.40;;
72929;SDS011;61073;54.260;20.816;2023-07-02T10:07:27;3.25;;;1.40;;
72929;SDS011;61073;54.260;20.816;2023-07-02T10:09:54;1.67;;;1.48;;
72929;SDS011;61073;54.260;20.816;2023-07-02T10:14:52;1.50;;;1.40;;
72929;SDS011;61073;54.260;20.816;2023-07-02T10:17:26;3.00;;;1.60;;
72929;SDS011;61073;54.260;20.816;2023-07-02T10:22:24;1.67;;;1.35;;
72929;SDS011;61073;54.260;20.816;2023-07-02T10:27:18;2.53;;;1.40;;
72929;SDS011;61073;54.260;20.816;2023-07-02T10:29:48;4.70;;;1.38;;
72929;SDS011;61073;54.260;20.816;2023-07-02T10:32:25;1.87;;;1.17;;
72929;SDS011;61073;54.260;20.816;2023-07-02T10:34:54;3.05;;;1.63;;
72929;SDS011;61073;54.260;20.816;2023-07-02T10:37:21;5.47;;;1.63;;
72929;SDS011;61073;54.260;20.816;2023-07-02T10:39:48;5.33;;;1.57;;
72929;SDS011;61073;54.260;20.816;2023-07-02T10:42:15;7.50;;;1.80;;
72929;SDS011;61073;54.260;20.816;2023-07-02T10:47:25;3.70;;;2.20;;
72929;SDS011;61073;54.260;20.816;2023-07-02T10:49:52;3.35;;;1.90;;
72929;SDS011;61073;54.260;20.816;2023-07-02T10:52:19;3.03;;;2.03;;
72929;SDS011;61073;54.260;20.816;2023-07-02T10:54:47;5.38;;;2.10;;
72929;SDS011;61073;54.260;20.816;2023-07-02T10:57:14;3.67;;;2.00;;
72929;SDS011;61073;54.260;20.816;2023-07-02T10:59:47;3.08;;;2.30;;
72929;SDS011;61073;54.260;20.816;2023-07-02T11:02:15;3.67;;;2.67;;
72929;SDS011;61073;54.260;20.816;2023-07-02T11:04:43;5.65;;;2.50;;
72929;SDS011;61073;54.260;20.816;2023-07-02T11:07:10;4.43;;;2.20;;
72929;SDS011;61073;54.260;20.816;2023-07-02T11:09:38;3.45;;;2.08;;
72929;SDS011;61073;54.260;20.816;2023-07-02T11:12:05;3.50;;;2.08;;
72929;SDS011;61073;54.260;20.816;2023-07-02T11:14:33;7.13;;;2.20;;
72929;SDS011;61073;54.260;20.816;2023-07-02T11:17:04;4.30;;;2.27;;
72929;SDS011;61073;54.260;20.816;2023-07-02T11:19:32;2.80;;;2.20;;
72929;SDS011;61073;54.260;20.816;2023-07-02T11:22:00;4.95;;;2.20;;
72929;SDS011;61073;54.260;20.816;2023-07-02T11:24:35;5.63;;;2.50;;
72929;SDS011;61073;54.260;20.816;2023-07-02T11:27:05;3.72;;;1.98;;
72929;SDS011;61073;54.260;20.816;2023-07-02T11:29:33;5.72;;;2.03;;
72929;SDS011;61073;54.260;20.816;2023-07-02T11:34:52;3.57;;;2.10;;
72929;SDS011;61073;54.260;20.816;2023-07-02T11:37:19;3.38;;;1.77;;
72929;SDS011;61073;54.260;20.816;2023-07-02T11:39:46;5.30;;;1.77;;
72929;SDS011;61073;54.260;20.816;2023-07-02T11:42:13;3.75;;;2.00;;
72929;SDS011;61073;54.260;20.816;2023-07-02T11:44:40;4.27;;;1.60;;
72929;SDS011;61073;54.260;20.816;2023-07-02T11:47:07;3.40;;;1.60;;
72929;SDS011;61073;54.260;20.816;2023-07-02T11:49:34;2.75;;;1.77;;
72929;SDS011;61073;54.260;20.816;2023-07-02T11:52:01;2.47;;;1.50;;
72929;SDS011;61073;54.260;20.816;2023-07-02T11:54:28;4.00;;;1.73;;
72929;SDS011;61073;54.260;20.816;2023-07-02T11:56:57;3.45;;;2.00;;
72929;SDS011;61073;54.260;20.816;2023-07-02T11:59:24;2.20;;;1.50;;
72929;SDS011;61073;54.260;20.816;2023-07-02T12:01:51;2.47;;;1.35;;
72929;SDS011;61073;54.260;20.816;2023-07-02T12:04:18;2.28;;;1.75;;
72929;SDS011;61073;54.260;20.816;2023-07-02T12:06:45;1.92;;;1.30;;
72929;SDS011;61073;54.260;20.816;2023-07-02T12:09:12;2.25;;;1.50;;
72929;SDS011;61073;54.260;20.816;2023-07-02T12:11:39;3.67;;;1.60;;
72929;SDS011;61073;54.260;20.816;2023-07-02T12:14:06;2.08;;;1.38;;
72929;SDS011;61073;54.260;20.816;2023-07-02T12:16:32;1.90;;;1.73;;
72929;SDS011;61073;54.260;20.816;2023-07-02T12:18:59;2.08;;;1.42;;
72929;SDS011;61073;54.260;20.816;2023-07-02T12:21:26;1.88;;;1.23;;
72929;SDS011;61073;54.260;20.816;2023-07-02T12:23:53;3.28;;;1.60;;
72929;SDS011;61073;54.260;20.816;2023-07-02T12:26:20;2.22;;;1.60;;
72929;SDS011;61073;54.260;20.816;2023-07-02T12:28:47;4.13;;;2.42;;
72929;SDS011;61073;54.260;20.816;2023-07-02T12:31:14;10.55;;;2.45;;
72929;SDS011;61073;54.260;20.816;2023-07-02T12:33:41;1.58;;;1.48;;
72929;SDS011;61073;54.260;20.816;2023-07-02T12:38:35;2.13;;;1.65;;
72929;SDS011;61073;54.260;20.816;2023-07-02T12:41:02;7.28;;;1.70;;
72929;SDS011;61073;54.260;20.816;2023-07-02T12:43:29;2.05;;;1.55;;
72929;SDS011;61073;54.260;20.816;2023-07-02T12:45:56;2.78;;;1.83;;
72929;SDS011;61073;54.260;20.816;2023-07-02T12:48:23;2.22;;;1.67;;
72929;SDS011;61073;54.260;20.816;2023-07-02T12:50:56;3.20;;;2.20;;
72929;SDS011;61073;54.260;20.816;2023-07-02T12:53:24;5.28;;;2.53;;
72929;SDS011;61073;54.260;20.816;2023-07-02T12:55:51;2.78;;;1.95;;
72929;SDS011;61073;54.260;20.816;2023-07-02T12:58:18;1.92;;;1.70;;
72929;SDS011;61073;54.260;20.816;2023-07-02T13:00:46;3.17;;;2.10;;
72929;SDS011;61073;54.260;20.816;2023-07-02T13:05:40;3.92;;;2.13;;
72929;SDS011;61073;54.260;20.816;2023-07-02T13:08:07;1.95;;;1.60;;
72929;SDS011;61073;54.260;20.816;2023-07-02T13:10:34;5.88;;;2.10;;
72929;SDS011;61073;54.260;20.816;2023-07-02T13:15:32;2.17;;;1.88;;
72929;SDS011;61073;54.260;20.816;2023-07-02T13:20:27;6.38;;;2.42;;
72929;SDS011;61073;54.260;20.816;2023-07-02T13:22:54;4.90;;;2.50;;
72929;SDS011;61073;54.260;20.816;2023-07-02T13:25:21;11.10;;;2.90;;
72929;SDS011;61073;54.260;20.816;2023-07-02T13:27:48;6.40;;;3.38;;
72929;SDS011;61073;54.260;20.816;2023-07-02T13:30:15;6.90;;;2.63;;
72929;SDS011;61073;54.260;20.816;2023-07-02T13:32:42;5.93;;;2.60;;
72929;SDS011;61073;54.260;20.816;2023-07-02T13:35:09;4.60;;;2.78;;
72929;SDS011;61073;54.260;20.816;2023-07-02T13:37:36;5.28;;;2.97;;
72929;SDS011;61073;54.260;20.816;2023-07-02T13:40:03;4.32;;;3.17;;
72929;SDS011;61073;54.260;20.816;2023-07-02T13:42:32;5.78;;;3.20;;
72929;SDS011;61073;54.260;20.816;2023-07-02T13:44:59;5.22;;;3.30;;
72929;SDS011;61073;54.260;20.816;2023-07-02T13:47:26;6.38;;;2.95;;
72929;SDS011;61073;54.260;20.816;2023-07-02T13:49:54;5.15;;;2.72;;
72929;SDS011;61073;54.260;20.816;2023-07-02T13:52:21;5.18;;;2.70;;
72929;SDS011;61073;54.260;20.816;2023-07-02T13:54:48;4.63;;;2.83;;
72929;SDS011;61073;54.260;20.816;2023-07-02T14:26:40;4.65;;;2.33;;
72929;SDS011;61073;54.260;20.816;2023-07-02T14:29:07;8.05;;;2.47;;
72929;SDS011;61073;54.260;20.816;2023-07-02T14:31:34;4.57;;;2.30;;
72929;SDS011;61073;54.260;20.816;2023-07-02T14:34:01;5.95;;;2.55;;
72929;SDS011;61073;54.260;20.816;2023-07-02T14:36:28;6.72;;;2.55;;
72929;SDS011;61073;54.260;20.816;2023-07-02T14:38:55;5.13;;;2.55;;
72929;SDS011;61073;54.260;20.816;2023-07-02T14:41:22;6.60;;;3.13;;
72929;SDS011;61073;54.260;20.816;2023-07-02T14:43:49;5.63;;;2.60;;
72929;SDS011;61073;54.260;20.816;2023-07-02T14:46:16;6.13;;;2.53;;
72929;SDS011;61073;54.260;20.816;2023-07-02T14:48:44;4.97;;;2.47;;
72929;SDS011;61073;54.260;20.816;2023-07-02T14:51:11;7.93;;;2.55;;
72929;SDS011;61073;54.260;20.816;2023-07-02T14:53:38;2.50;;;2.30;;
72929;SDS011;61073;54.260;20.816;2023-07-02T15:00:59;6.97;;;2.50;;
72929;SDS011;61073;54.260;20.816;2023-07-02T15:03:27;3.35;;;2.50;;
72929;SDS011;61073;54.260;20.816;2023-07-02T15:10:49;5.53;;;2.95;;
72929;SDS011;61073;54.260;20.816;2023-07-02T15:13:16;7.40;;;4.75;;
72929;SDS011;61073;54.260;20.816;2023-07-02T15:18:10;5.25;;;2.63;;
72929;SDS011;61073;54.260;20.816;2023-07-02T15:25:32;5.15;;;2.72;;
72929;SDS011;61073;54.260;20.816;2023-07-02T16:07:16;6.15;;;2.65;;
72929;SDS011;61073;54.260;20.816;2023-07-02T16:09:43;6.60;;;2.67;;
72929;SDS011;61073;54.260;20.816;2023-07-02T16:12:10;5.30;;;3.00;;
72929;SDS011;61073;54.260;20.816;2023-07-02T16:14:37;9.57;;;2.85;;
72929;SDS011;61073;54.260;20.816;2023-07-02T16:17:04;5.72;;;3.13;;
72929;SDS011;61073;54.260;20.816;2023-07-02T16:19:32;7.50;;;2.80;;
72929;SDS011;61073;54.260;20.816;2023-07-02T16:26:53;7.43;;;2.78;;
72929;SDS011;61073;54.260;20.816;2023-07-02T16:29:23;7.30;;;2.97;;
72929;SDS011;61073;54.260;20.816;2023-07-02T16:31:52;7.40;;;3.08;;
72929;SDS011;61073;54.260;20.816;2023-07-02T16:36:47;6.45;;;2.95;;
72929;SDS011;61073;54.260;20.816;2023-07-02T16:39:15;5.50;;;2.47;;
72929;SDS011;61073;54.260;20.816;2023-07-02T16:41:42;8.27;;;3.10;;
72929;SDS011;61073;54.260;20.816;2023-07-02T16:44:13;7.20;;;2.90;;
72929;SDS011;61073;54.260;20.816;2023-07-02T16:46:41;6.97;;;3.45;;
72929;SDS011;61073;54.260;20.816;2023-07-02T16:49:08;7.22;;;3.28;;
72929;SDS011;61073;54.260;20.816;2023-07-02T16:51:35;9.27;;;3.08;;
72929;SDS011;61073;54.260;20.816;2023-07-02T16:54:06;6.43;;;3.03;;
72929;SDS011;61073;54.260;20.816;2023-07-02T16:56:34;5.72;;;2.80;;
72929;SDS011;61073;54.260;20.816;2023-07-02T16:59:02;5.55;;;2.85;;
72929;SDS011;61073;54.260;20.816;2023-07-02T17:01:29;5.07;;;2.80;;
72929;SDS011;61073;54.260;20.816;2023-07-02T17:09:15;3.88;;;2.72;;
72929;SDS011;61073;54.260;20.816;2023-07-02T17:14:05;6.60;;;2.67;;
72929;SDS011;61073;54.260;20.816;2023-07-02T17:16:32;7.80;;;3.53;;
72929;SDS011;61073;54.260;20.816;2023-07-02T17:18:59;8.32;;;3.42;;
72929;SDS011;61073;54.260;20.816;2023-07-02T17:21:26;7.80;;;3.53;;
72929;SDS011;61073;54.260;20.816;2023-07-02T17:23:53;6.22;;;3.63;;
72929;SDS011;61073;54.260;20.816;2023-07-02T17:26:20;8.10;;;3.90;;
72929;SDS011;61073;54.260;20.816;2023-07-02T17:28:47;8.68;;;3.75;;
72929;SDS011;61073;54.260;20.816;2023-07-02T17:31:14;9.93;;;3.55;;
72929;SDS011;61073;54.260;20.816;2023-07-02T17:33:40;10.85;;;3.50;;
72929;SDS011;61073;54.260;20.816;2023-07-02T17:36:08;6.47;;;3.50;;
72929;SDS011;61073;54.260;20.816;2023-07-02T17:38:36;9.30;;;3.50;;
72929;SDS011;61073;54.260;20.816;2023-07-02T17:41:05;4.60;;;3.00;;
72929;SDS011;61073;54.260;20.816;2023-07-02T17:43:37;7.30;;;3.45;;
72929;SDS011;61073;54.260;20.816;2023-07-02T17:46:04;6.20;;;3.22;;
72929;SDS011;61073;54.260;20.816;2023-07-02T17:48:32;8.32;;;3.75;;
72929;SDS011;61073;54.260;20.816;2023-07-02T17:50:59;10.27;;;3.75;;
72929;SDS011;61073;54.260;20.816;2023-07-02T17:53:27;4.07;;;3.00;;
72929;SDS011;61073;54.260;20.816;2023-07-02T17:55:55;7.63;;;3.58;;
72929;SDS011;61073;54.260;20.816;2023-07-02T17:58:22;8.18;;;3.80;;